createdAt,value
2017-10-19T00:00:43.826Z,100.00
2017-10-19T00:01:49.826Z,100.00
2017-10-19T00:02:56.274Z,100.00
2017-10-19T00:04:01.948Z,100.00
2017-10-19T00:05:09.735Z,100.00
2017-10-19T00:06:15.858Z,100.00
2017-10-19T00:07:21.992Z,100.00
2017-10-19T00:08:27.938Z,100.00
2017-10-19T00:09:34.118Z,100.00
2017-10-19T00:10:40.254Z,100.00
2017-10-19T00:11:46.522Z,100.00
2017-10-19T00:12:52.895Z,100.00
2017-10-19T00:14:01.790Z,100.00
2017-10-19T00:15:09.315Z,100.00
2017-10-19T00:16:16.440Z,100.00
2017-10-19T00:17:22.718Z,100.00
2017-10-19T00:18:30.778Z,100.00
2017-10-19T00:19:36.967Z,100.00
2017-10-19T00:20:43.060Z,100.00
2017-10-19T00:21:49.008Z,100.00
2017-10-19T00:22:55.181Z,100.00
2017-10-19T00:24:01.268Z,100.00
2017-10-19T00:25:07.443Z,100.00
2017-10-19T00:26:13.557Z,100.00
2017-10-19T00:27:20.461Z,100.00
2017-10-19T00:28:26.616Z,100.00
2017-10-19T00:29:32.735Z,100.00
2017-10-19T00:30:38.660Z,100.00
2017-10-19T00:31:44.746Z,100.00
2017-10-19T00:32:50.499Z,100.00
2017-10-19T00:33:56.800Z,100.00
2017-10-19T00:35:02.922Z,100.00
2017-10-19T00:36:08.843Z,100.00
2017-10-19T00:37:14.944Z,100.00
2017-10-19T00:38:20.661Z,100.00
2017-10-19T00:39:26.433Z,100.00
2017-10-19T00:40:32.536Z,100.00
2017-10-19T00:41:38.635Z,100.00
2017-10-19T00:42:44.598Z,100.00
2017-10-19T00:43:50.690Z,100.00
2017-10-19T00:44:56.881Z,100.00
2017-10-19T00:46:03.013Z,100.00
2017-10-19T00:47:09.171Z,100.00
2017-10-19T00:48:18.913Z,100.00
2017-10-19T00:49:25.121Z,100.00
2017-10-19T00:50:31.236Z,100.00
2017-10-19T00:51:37.572Z,100.00
2017-10-19T00:52:43.654Z,100.00
2017-10-19T00:53:49.376Z,100.00
2017-10-19T00:54:55.446Z,100.00
2017-10-19T00:56:01.196Z,100.00
2017-10-19T00:57:06.759Z,100.00
2017-10-19T00:58:12.073Z,100.00
2017-10-19T00:59:17.627Z,100.00
2017-10-19T01:00:22.825Z,100.00
2017-10-19T01:01:27.340Z,100.00
2017-10-19T01:02:33.078Z,100.00
2017-10-19T01:03:39.163Z,100.00
2017-10-19T01:04:45.256Z,100.00
2017-10-19T01:05:51.368Z,100.00
2017-10-19T01:06:57.450Z,100.00
2017-10-19T01:08:03.578Z,100.00
2017-10-19T01:09:09.688Z,100.00
2017-10-19T01:10:15.869Z,100.00
2017-10-19T01:11:27.033Z,100.00
2017-10-19T01:12:32.789Z,100.00
2017-10-19T01:13:38.348Z,100.00
2017-10-19T01:14:44.042Z,100.00
2017-10-19T01:15:50.652Z,100.00
2017-10-19T01:16:56.543Z,100.00
2017-10-19T01:18:03.141Z,100.00
2017-10-19T01:19:08.522Z,100.00
2017-10-19T01:20:13.880Z,100.00
2017-10-19T01:21:19.281Z,100.00
2017-10-19T01:22:24.655Z,100.00
2017-10-19T01:23:30.117Z,100.00
2017-10-19T01:24:35.184Z,100.00
2017-10-19T01:25:40.574Z,100.00
2017-10-19T01:26:45.928Z,100.00
2017-10-19T01:27:51.649Z,100.00
2017-10-19T01:28:57.074Z,100.00
2017-10-19T01:30:02.467Z,100.00
2017-10-19T01:31:07.665Z,100.00
2017-10-19T01:32:13.360Z,100.00
2017-10-19T01:33:19.065Z,100.00
2017-10-19T01:34:24.402Z,100.00
2017-10-19T01:35:30.123Z,100.00
2017-10-19T01:36:35.470Z,100.00
2017-10-19T01:37:41.302Z,100.00
2017-10-19T01:38:46.657Z,100.00
2017-10-19T01:39:52.226Z,100.00
2017-10-19T01:40:57.618Z,100.00
2017-10-19T01:42:03.961Z,100.00
2017-10-19T01:43:09.855Z,100.00
2017-10-19T01:44:15.252Z,100.00
2017-10-19T01:45:20.637Z,100.00
2017-10-19T01:46:26.381Z,100.00
2017-10-19T01:47:31.867Z,100.00
2017-10-19T01:48:37.567Z,100.00
2017-10-19T01:50:00.777Z,100.00
2017-10-19T01:51:06.172Z,100.00
2017-10-19T01:52:12.191Z,100.00
2017-10-19T01:53:18.307Z,100.00
2017-10-19T01:54:24.411Z,100.00
2017-10-19T01:55:30.150Z,100.00
2017-10-19T01:56:36.257Z,100.00
2017-10-19T01:57:44.193Z,100.00
2017-10-19T01:58:49.911Z,100.00
2017-10-19T01:59:55.965Z,100.00
2017-10-19T02:01:01.873Z,100.00
2017-10-19T02:02:08.499Z,100.00
2017-10-19T02:03:22.879Z,100.00
2017-10-19T02:04:32.923Z,100.00
2017-10-19T02:05:39.071Z,100.00
2017-10-19T02:06:44.854Z,100.00
2017-10-19T02:07:50.616Z,100.00
2017-10-19T02:08:56.334Z,100.00
2017-10-19T02:10:02.423Z,100.00
2017-10-19T02:11:08.561Z,100.00
2017-10-19T02:12:14.633Z,100.00
2017-10-19T02:13:20.774Z,100.00
2017-10-19T02:14:26.528Z,100.00
2017-10-19T02:15:31.922Z,100.00
2017-10-19T02:16:38.017Z,100.00
2017-10-19T02:17:44.104Z,100.00
2017-10-19T02:18:50.199Z,100.00
2017-10-19T02:19:55.974Z,100.00
2017-10-19T02:21:02.115Z,100.00
2017-10-19T02:22:08.546Z,100.00
2017-10-19T02:23:14.659Z,100.00
2017-10-19T02:24:20.660Z,100.00
2017-10-19T02:25:26.816Z,100.00
2017-10-19T02:26:33.002Z,100.00
2017-10-19T02:27:39.135Z,100.00
2017-10-19T02:28:45.213Z,100.00
2017-10-19T02:31:33.848Z,100.00
2017-10-19T02:32:39.947Z,100.00
2017-10-19T02:33:46.056Z,100.00
2017-10-19T02:34:55.437Z,100.00
2017-10-19T02:36:01.586Z,100.00
2017-10-19T02:37:07.699Z,100.00
2017-10-19T02:38:13.627Z,100.00
2017-10-19T02:39:19.763Z,100.00
2017-10-19T02:40:25.913Z,100.00
2017-10-19T02:41:32.029Z,100.00
2017-10-19T02:42:38.191Z,100.00
2017-10-19T02:43:44.127Z,100.00
2017-10-19T02:44:50.240Z,100.00
2017-10-19T02:45:56.379Z,100.00
2017-10-19T02:47:02.483Z,100.00
2017-10-19T02:48:08.634Z,100.00
2017-10-19T02:49:14.756Z,100.00
2017-10-19T02:50:20.896Z,100.00
2017-10-19T02:51:27.024Z,100.00
2017-10-19T02:52:32.821Z,100.00
2017-10-19T02:53:38.948Z,100.00
2017-10-19T02:54:44.695Z,100.00
2017-10-19T02:55:50.475Z,100.00
2017-10-19T02:56:59.391Z,100.00
2017-10-19T02:58:05.304Z,100.00
2017-10-19T02:59:15.770Z,100.00
2017-10-19T03:00:21.557Z,100.00
2017-10-19T03:01:27.487Z,100.00
2017-10-19T03:02:33.238Z,100.00
2017-10-19T03:03:39.341Z,100.00
2017-10-19T03:04:45.627Z,100.00
2017-10-19T03:05:51.795Z,100.00
2017-10-19T03:06:57.667Z,100.00
2017-10-19T03:08:03.602Z,100.00
2017-10-19T03:09:08.982Z,100.00
2017-10-19T03:10:15.563Z,100.00
2017-10-19T03:11:21.680Z,100.00
2017-10-19T03:12:27.809Z,100.00
2017-10-19T03:13:33.589Z,100.00
2017-10-19T03:14:39.671Z,100.00
2017-10-19T03:15:45.788Z,100.00
2017-10-19T03:16:51.872Z,100.00
2017-10-19T03:17:58.112Z,100.00
2017-10-19T03:19:04.194Z,100.00
2017-10-19T03:20:10.318Z,100.00
2017-10-19T03:21:16.464Z,100.00
2017-10-19T03:22:22.583Z,100.00
2017-10-19T03:23:28.707Z,100.00
2017-10-19T03:24:34.807Z,100.00
2017-10-19T03:25:40.786Z,100.00
2017-10-19T03:26:46.902Z,100.00
2017-10-19T03:27:52.986Z,100.00
2017-10-19T03:28:59.079Z,100.00
2017-10-19T03:30:05.178Z,100.00
2017-10-19T03:31:11.324Z,100.00
2017-10-19T03:32:17.404Z,100.00
2017-10-19T03:33:23.503Z,100.00
2017-10-19T03:34:29.278Z,100.00
2017-10-19T03:35:35.029Z,100.00
2017-10-19T03:36:41.673Z,100.00
2017-10-19T03:44:40.081Z,100.00
2017-10-19T03:46:05.165Z,100.00
2017-10-19T03:47:25.267Z,100.00
2017-10-19T03:48:48.143Z,100.00
2017-10-19T03:50:11.325Z,100.00
2017-10-19T03:51:21.717Z,100.00
2017-10-19T03:52:28.722Z,100.00
2017-10-19T03:53:36.268Z,100.00
2017-10-19T03:54:42.403Z,100.00
2017-10-19T03:55:48.614Z,100.00
2017-10-19T03:56:55.258Z,100.00
2017-10-19T03:58:01.427Z,100.00
2017-10-19T03:59:07.701Z,100.00
2017-10-19T04:00:13.332Z,100.00
2017-10-19T04:01:22.715Z,100.00
2017-10-19T04:02:28.930Z,100.00
2017-10-19T04:03:35.117Z,100.00
2017-10-19T04:04:47.442Z,100.00
2017-10-19T04:05:58.664Z,100.00
2017-10-19T04:07:04.859Z,100.00
2017-10-19T04:08:10.967Z,100.00
2017-10-19T04:09:17.756Z,100.00
2017-10-19T04:10:23.881Z,100.00
2017-10-19T04:11:30.035Z,100.00
2017-10-19T04:12:36.271Z,100.00
2017-10-19T04:13:42.399Z,100.00
2017-10-19T04:14:48.334Z,100.00
2017-10-19T04:15:54.452Z,100.00
2017-10-19T04:17:00.636Z,100.00
2017-10-19T04:18:06.722Z,100.00
2017-10-19T04:19:12.922Z,100.00
2017-10-19T04:20:19.082Z,100.00
2017-10-19T04:21:25.263Z,100.00
2017-10-19T04:22:31.461Z,100.00
2017-10-19T04:23:38.898Z,100.00
2017-10-19T04:24:46.711Z,100.00
2017-10-19T04:25:54.609Z,100.00
2017-10-19T04:27:04.443Z,100.00
2017-10-19T04:28:10.834Z,100.00
2017-10-19T04:29:16.943Z,100.00
2017-10-19T04:30:24.164Z,100.00
2017-10-19T04:31:34.181Z,100.00
2017-10-19T04:32:46.477Z,100.00
2017-10-19T04:33:58.995Z,100.00
2017-10-19T04:35:11.904Z,100.00
2017-10-19T04:36:19.140Z,100.00
2017-10-19T04:37:30.382Z,100.00
2017-10-19T04:38:39.692Z,100.00
2017-10-19T04:39:52.488Z,100.00
2017-10-19T04:41:14.043Z,100.00
2017-10-19T04:42:28.140Z,100.00
2017-10-19T04:43:38.840Z,100.00
2017-10-19T04:44:52.877Z,100.00
2017-10-19T04:46:01.899Z,100.00
2017-10-19T04:47:25.222Z,100.00
2017-10-19T04:51:10.080Z,100.00
2017-10-19T04:52:20.669Z,100.00
2017-10-19T04:53:27.567Z,100.00
2017-10-19T04:54:36.023Z,100.00
2017-10-19T04:55:43.393Z,100.00
2017-10-19T04:56:51.022Z,100.00
2017-10-19T05:03:30.306Z,100.00
2017-10-19T05:04:39.762Z,100.00
2017-10-19T05:05:56.236Z,100.00
2017-10-19T05:07:06.623Z,100.00
2017-10-19T05:14:09.412Z,100.00
2017-10-19T05:15:29.436Z,100.00
2017-10-19T05:16:47.494Z,100.00
2017-10-19T05:21:44.898Z,100.00
2017-10-19T05:22:58.497Z,100.00
2017-10-19T05:24:45.923Z,100.00
2017-10-19T05:26:08.226Z,100.00
2017-10-19T06:17:17.297Z,100.00
2017-10-19T06:21:00.324Z,100.00
2017-10-19T06:22:09.382Z,100.00
2017-10-19T06:23:20.423Z,100.00
2017-10-19T06:24:39.888Z,100.00
2017-10-19T06:25:49.087Z,100.00
2017-10-19T06:26:58.165Z,100.00
2017-10-19T06:28:08.499Z,100.00
2017-10-19T06:29:18.367Z,100.00
2017-10-19T06:30:27.427Z,100.00
2017-10-19T06:31:33.647Z,100.00
2017-10-19T06:32:45.299Z,100.00
2017-10-19T06:33:53.474Z,100.00
2017-10-19T06:35:00.619Z,100.00
2017-10-19T06:36:10.265Z,100.00
2017-10-19T06:37:17.918Z,100.00
2017-10-19T06:38:24.310Z,100.00
2017-10-19T06:39:31.670Z,100.00
2017-10-19T06:40:39.489Z,100.00
2017-10-19T06:41:46.403Z,100.00
2017-10-19T06:42:52.705Z,100.00
2017-10-19T06:44:01.088Z,100.00
2017-10-19T06:45:08.726Z,100.00
2017-10-19T06:46:15.786Z,100.00
2017-10-19T06:47:23.337Z,100.00
2017-10-19T06:48:31.176Z,100.00
2017-10-19T06:49:37.351Z,100.00
2017-10-19T06:50:44.690Z,100.00
2017-10-19T06:51:51.952Z,100.00
2017-10-19T06:52:58.944Z,100.00
2017-10-19T06:54:06.277Z,100.00
2017-10-19T06:55:13.369Z,100.00
2017-10-19T06:56:20.252Z,100.00
2017-10-19T06:57:27.359Z,100.00
2017-10-19T06:58:33.994Z,100.00
2017-10-19T06:59:40.936Z,100.00
2017-10-19T07:00:47.316Z,100.00
2017-10-19T07:01:53.765Z,100.00
2017-10-19T07:03:00.073Z,100.00
2017-10-19T07:04:07.683Z,100.00
2017-10-19T07:05:14.057Z,100.00
2017-10-19T07:06:20.205Z,100.00
2017-10-19T07:07:26.525Z,100.00
2017-10-19T07:08:32.739Z,100.00
2017-10-19T07:09:39.260Z,100.00
2017-10-19T07:10:45.433Z,100.00
2017-10-19T07:11:51.657Z,100.00
2017-10-19T07:12:57.901Z,100.00
2017-10-19T07:14:04.133Z,100.00
2017-10-19T07:15:10.403Z,100.00
2017-10-19T07:16:16.554Z,100.00
2017-10-19T07:17:22.556Z,100.00
2017-10-19T07:18:28.910Z,100.00
2017-10-19T07:19:35.950Z,100.00
2017-10-19T07:20:42.368Z,100.00
2017-10-19T07:21:48.679Z,100.00
2017-10-19T07:22:54.895Z,100.00
2017-10-19T07:24:01.192Z,100.00
2017-10-19T07:25:07.412Z,100.00
2017-10-19T07:26:13.418Z,100.00
2017-10-19T07:27:19.852Z,100.00
2017-10-19T07:28:26.133Z,100.00
2017-10-19T07:29:32.321Z,100.00
2017-10-19T07:30:38.561Z,100.00
2017-10-19T07:31:44.871Z,100.00
2017-10-19T07:32:50.665Z,100.00
2017-10-19T07:33:56.565Z,100.00
2017-10-19T07:35:03.251Z,100.00
2017-10-19T07:36:09.680Z,100.00
2017-10-19T07:37:15.857Z,100.00
2017-10-19T07:38:22.159Z,100.00
2017-10-19T07:39:27.923Z,100.00
2017-10-19T07:40:34.193Z,100.00
2017-10-19T07:41:40.513Z,100.00
2017-10-19T07:42:46.763Z,100.00
2017-10-19T07:43:53.572Z,100.00
2017-10-19T07:44:59.795Z,100.00
2017-10-19T07:46:06.210Z,100.00
2017-10-19T07:47:12.425Z,100.00
2017-10-19T07:48:19.140Z,100.00
2017-10-19T07:49:25.565Z,100.00
2017-10-19T07:50:31.735Z,100.00
2017-10-19T07:51:38.075Z,100.00
2017-10-19T07:52:44.765Z,100.00
2017-10-19T07:53:50.999Z,100.00
2017-10-19T07:54:57.256Z,100.00
2017-10-19T07:56:03.644Z,100.00
2017-10-19T07:57:09.854Z,100.00
2017-10-19T07:58:16.975Z,100.00
2017-10-19T07:59:28.919Z,100.00
2017-10-19T08:00:36.151Z,100.00
2017-10-19T08:01:47.682Z,100.00
2017-10-19T08:03:08.840Z,100.00
2017-10-19T08:07:44.681Z,100.00
2017-10-19T08:09:10.446Z,100.00
2017-10-19T08:54:59.483Z,89.47
2017-10-19T08:56:35.088Z,91.14
2017-10-19T11:04:47.639Z,62.26
2017-10-19T11:06:21.375Z,63.89
2017-10-19T11:07:27.705Z,64.26
2017-10-19T11:09:09.206Z,63.85
2017-10-19T11:10:26.736Z,65.01
2017-10-19T11:11:45.236Z,63.48
2017-10-19T11:13:07.680Z,62.09
2017-10-19T11:14:21.550Z,63.70
2017-10-19T11:46:01.022Z,62.02
2017-10-19T11:47:08.049Z,61.82
2017-10-19T11:48:15.124Z,61.67
2017-10-19T11:49:22.341Z,60.96
2017-10-19T11:50:29.549Z,60.60
2017-10-19T11:51:36.752Z,59.44
2017-10-19T11:52:43.868Z,61.13
2017-10-19T11:53:50.907Z,59.91
2017-10-19T11:54:58.177Z,58.84
2017-10-19T11:56:05.302Z,58.67
2017-10-19T11:57:12.391Z,57.41
2017-10-19T11:58:19.743Z,56.86
2017-10-19T11:59:26.744Z,57.29
2017-10-19T12:00:33.838Z,57.20
2017-10-19T12:01:40.984Z,58.10
2017-10-19T12:02:48.163Z,55.90
2017-10-19T12:03:55.370Z,55.46
2017-10-19T12:05:04.229Z,55.55
2017-10-19T12:06:13.678Z,55.14
2017-10-19T12:07:20.871Z,55.28
2017-10-19T12:08:28.048Z,56.29
2017-10-19T12:09:35.273Z,54.77
2017-10-19T12:10:44.818Z,55.04
2017-10-19T12:11:51.829Z,54.96
2017-10-19T12:12:58.943Z,53.90
2017-10-19T12:14:06.172Z,54.15
2017-10-19T12:15:15.112Z,53.75
2017-10-19T12:16:22.052Z,51.81
2017-10-19T12:17:28.984Z,50.84
2017-10-19T12:18:36.081Z,50.51
2017-10-19T12:19:43.229Z,50.21
2017-10-19T12:20:50.365Z,48.74
2017-10-19T12:21:57.507Z,49.45
2017-10-19T12:23:04.505Z,49.10
2017-10-19T12:24:11.841Z,48.63
2017-10-19T12:25:18.963Z,47.70
2017-10-19T12:26:26.429Z,49.20
2017-10-19T12:27:34.910Z,49.11
2017-10-19T12:28:42.214Z,48.22
2017-10-19T12:29:49.147Z,49.13
2017-10-19T12:30:56.304Z,48.33
2017-10-19T12:32:03.854Z,47.11
2017-10-19T12:33:12.112Z,45.78
2017-10-19T12:34:20.726Z,45.04
2017-10-19T12:35:31.264Z,45.66
2017-10-19T12:36:38.560Z,45.08
2017-10-19T12:37:46.731Z,44.19
2017-10-19T12:38:56.653Z,43.48
2017-10-19T12:40:04.050Z,43.59
2017-10-19T12:41:11.690Z,44.18
2017-10-19T12:42:20.563Z,42.87
2017-10-19T12:43:28.303Z,42.21
2017-10-19T12:44:36.196Z,39.88
2017-10-19T12:45:46.600Z,40.60
2017-10-19T12:46:56.501Z,40.63
2017-10-19T12:48:04.140Z,41.71
2017-10-19T12:49:12.249Z,39.49
2017-10-19T12:50:19.091Z,39.32
2017-10-19T12:51:28.712Z,37.05
2017-10-19T12:52:36.510Z,37.87
2017-10-19T12:53:45.537Z,35.59
2017-10-19T12:54:53.368Z,36.03
2017-10-19T12:56:04.919Z,34.49
2017-10-19T12:57:12.174Z,34.31
2017-10-19T12:58:20.792Z,35.46
2017-10-19T12:59:27.573Z,33.98
2017-10-19T13:00:34.991Z,33.39
2017-10-19T13:01:41.210Z,32.47
2017-10-19T13:02:47.289Z,32.81
2017-10-19T13:03:55.366Z,31.51
2017-10-19T13:05:02.253Z,31.50
2017-10-19T13:07:26.070Z,33.28
2017-10-19T13:08:32.424Z,32.08
2017-10-19T13:09:38.921Z,30.51
2017-10-19T13:10:50.634Z,31.23
2017-10-19T13:11:57.899Z,31.92
2017-10-19T13:13:05.496Z,31.81
2017-10-19T13:14:14.161Z,29.97
2017-10-19T13:15:22.147Z,28.74
2017-10-19T13:16:29.685Z,29.51
2017-10-19T13:17:35.927Z,30.55
2017-10-19T13:18:42.383Z,29.23
2017-10-19T13:19:48.844Z,27.69
2017-10-19T13:20:55.614Z,27.98
2017-10-19T13:22:03.516Z,29.69
2017-10-19T13:23:11.367Z,29.26
2017-10-19T13:24:18.901Z,32.22
2017-10-19T13:25:26.917Z,32.46
2017-10-19T13:26:38.254Z,33.03
2017-10-19T13:27:44.074Z,32.57
2017-10-19T13:28:53.361Z,34.80
2017-10-19T13:30:00.140Z,33.71
2017-10-19T13:31:07.994Z,34.62
2017-10-19T13:32:14.517Z,32.71
2017-10-19T13:33:22.834Z,35.11
2017-10-19T13:34:31.017Z,34.30
2017-10-19T13:35:38.123Z,37.55
2017-10-19T13:36:48.338Z,34.84
2017-10-19T13:37:54.667Z,35.73
2017-10-19T13:39:00.764Z,33.90
2017-10-19T13:40:06.982Z,33.12
2017-10-19T13:41:13.020Z,34.29
2017-10-19T13:42:19.385Z,37.08
2017-10-19T13:43:28.992Z,35.70
2017-10-19T13:44:35.718Z,38.21
2017-10-19T13:45:42.036Z,38.13
2017-10-19T13:46:48.605Z,39.20
2017-10-19T13:47:55.654Z,37.23
2017-10-19T13:49:02.301Z,37.47
2017-10-19T13:50:08.400Z,36.79
2017-10-19T13:51:17.103Z,34.14
2017-10-19T13:52:23.314Z,40.10
2017-10-19T13:53:29.446Z,33.72
2017-10-19T13:54:36.571Z,30.60
2017-10-19T13:55:44.745Z,33.19
2017-10-19T13:56:51.371Z,31.88
2017-10-19T13:57:57.797Z,33.13
2017-10-19T13:59:03.729Z,33.31
2017-10-19T14:00:10.108Z,31.95
2017-10-19T14:01:16.171Z,31.05
2017-10-19T14:02:22.645Z,31.22
2017-10-19T14:03:29.046Z,32.41
2017-10-19T14:04:34.791Z,30.84
2017-10-19T14:05:40.921Z,34.56
2017-10-19T14:06:47.324Z,31.83
2017-10-19T14:07:53.598Z,30.38
2017-10-19T14:08:59.550Z,30.37
2017-10-19T14:10:05.818Z,32.01
2017-10-19T14:11:13.031Z,29.94
2017-10-19T14:12:20.055Z,28.18
2017-10-19T14:13:27.511Z,28.76
2017-10-19T14:14:34.887Z,28.54
2017-10-19T14:15:41.313Z,29.43
2017-10-19T14:16:47.370Z,32.13
2017-10-19T14:17:53.287Z,30.69
2017-10-19T14:19:01.505Z,32.97
2017-10-19T14:20:07.756Z,35.17
2017-10-19T14:21:14.380Z,35.90
2017-10-19T14:22:20.743Z,37.40
2017-10-19T14:23:27.665Z,38.89
2017-10-19T14:24:34.006Z,40.24
2017-10-19T14:25:40.072Z,40.31
2017-10-19T14:26:46.095Z,43.01
2017-10-19T14:27:52.143Z,43.43
2017-10-19T14:28:58.324Z,42.66
2017-10-19T14:30:05.576Z,40.34
2017-10-19T14:31:11.280Z,39.28
2017-10-19T14:32:18.230Z,40.75
2017-10-19T14:33:24.745Z,40.27
2017-10-19T14:34:30.938Z,40.01
2017-10-19T14:35:37.067Z,41.10
2017-10-19T14:36:43.146Z,43.88
2017-10-19T14:37:48.953Z,43.69
2017-10-19T14:38:54.917Z,41.79
2017-10-19T14:40:01.151Z,41.78
2017-10-19T14:41:07.081Z,41.10
2017-10-19T14:42:13.072Z,40.62
2017-10-19T14:43:20.409Z,40.99
2017-10-19T14:44:30.559Z,40.74
2017-10-19T14:45:36.818Z,37.91
2017-10-19T14:46:43.277Z,39.67
2017-10-19T14:47:50.057Z,36.67
2017-10-19T14:48:56.523Z,36.71
2017-10-19T14:50:02.213Z,36.28
2017-10-19T14:51:08.430Z,37.97
2017-10-19T14:52:14.679Z,37.85
2017-10-19T14:53:26.960Z,34.01
2017-10-19T14:54:33.961Z,38.47
2017-10-19T14:55:41.321Z,36.99
2017-10-19T14:56:51.065Z,38.98
2017-10-19T14:58:26.145Z,38.78
2017-10-19T16:23:06.164Z,77.09
2017-10-19T16:24:20.538Z,76.90
2017-10-19T16:25:36.353Z,77.52
2017-10-19T16:26:47.249Z,77.15
2017-10-19T16:28:02.668Z,77.29
2017-10-19T16:29:19.043Z,77.03
2017-10-19T16:30:33.307Z,77.63
2017-10-19T16:31:48.015Z,77.46
2017-10-19T16:32:57.183Z,77.59
2017-10-19T16:34:08.625Z,79.36
2017-10-19T16:35:17.325Z,79.59
2017-10-19T16:36:30.148Z,79.53
2017-10-19T16:37:52.189Z,79.75
2017-10-19T16:39:13.665Z,79.50
2017-10-19T16:40:23.593Z,79.34
2017-10-19T16:41:33.033Z,80.25
2017-10-19T16:44:02.466Z,81.31
2017-10-19T16:45:35.022Z,81.42
2017-10-19T16:46:41.341Z,81.66
2017-10-19T16:49:32.857Z,81.74
2017-10-19T16:50:41.422Z,82.01
2017-10-19T16:51:48.355Z,81.12
2017-10-19T16:52:58.208Z,82.63
2017-10-19T16:54:09.471Z,81.65
2017-10-19T16:55:20.062Z,82.56
2017-10-19T16:56:32.419Z,82.37
2017-10-19T16:57:47.954Z,82.72
2017-10-19T17:06:54.055Z,83.30
2017-10-19T17:08:09.905Z,84.23
2017-10-19T17:09:30.178Z,85.22
2017-10-19T17:12:39.168Z,83.00
2017-10-19T20:57:08.994Z,91.49
2017-10-19T20:58:15.440Z,91.81
2017-10-19T20:59:22.255Z,91.54
2017-10-19T21:00:28.475Z,91.56
2017-10-19T21:01:35.392Z,91.96
2017-10-19T21:02:43.545Z,92.07
2017-10-19T21:03:51.026Z,91.86
2017-10-19T21:04:57.941Z,92.25
2017-10-19T21:06:04.649Z,91.95
2017-10-19T21:07:12.578Z,92.66
2017-10-19T21:08:19.127Z,92.65
2017-10-19T21:09:25.614Z,92.70
2017-10-19T21:10:33.290Z,92.73
2017-10-19T21:11:40.828Z,92.37
2017-10-19T21:14:02.533Z,91.86
2017-10-19T21:15:10.283Z,91.46
2017-10-19T21:16:20.475Z,92.16
2017-10-19T21:17:29.134Z,92.95
2017-10-19T21:18:35.453Z,92.63
2017-10-19T21:19:43.021Z,92.64
2017-10-19T21:20:52.897Z,92.62
2017-10-19T21:22:00.219Z,92.27
2017-10-19T21:23:07.693Z,92.47
2017-10-19T21:24:15.707Z,92.54
2017-10-19T21:25:22.080Z,93.39
2017-10-19T21:26:30.129Z,93.45
2017-10-19T21:31:47.462Z,92.87
2017-10-19T21:32:53.868Z,92.39
2017-10-19T21:34:00.856Z,92.19
2017-10-19T21:38:32.500Z,92.87
2017-10-19T21:39:40.355Z,92.31
2017-10-19T21:40:46.760Z,92.00
2017-10-19T21:41:54.027Z,92.71
2017-10-19T21:43:01.753Z,92.28
2017-10-19T21:44:09.321Z,91.98
2017-10-19T21:45:16.593Z,93.69
2017-10-19T21:46:24.053Z,93.51
2017-10-19T21:47:30.590Z,92.61
2017-10-19T21:48:36.979Z,92.15
2017-10-19T21:49:44.424Z,92.44
2017-10-19T21:50:52.885Z,93.79
2017-10-19T21:51:59.901Z,94.22
2017-10-19T21:53:06.228Z,94.50
2017-10-19T21:54:13.054Z,93.35
2017-10-19T21:55:19.481Z,93.83
2017-10-19T21:56:27.319Z,95.91
2017-10-19T21:57:34.488Z,95.51
2017-10-19T21:58:41.878Z,94.11
2017-10-19T21:59:48.526Z,94.55
2017-10-19T22:00:54.409Z,94.91
2017-10-19T22:02:01.647Z,95.48
2017-10-19T22:03:07.653Z,94.24
2017-10-19T22:04:14.684Z,94.46
2017-10-19T22:05:21.790Z,94.51
2017-10-19T22:06:29.338Z,95.57
2017-10-19T22:07:36.673Z,95.86
2017-10-19T22:08:43.492Z,95.33
2017-10-19T22:09:49.798Z,95.98
2017-10-19T22:10:56.948Z,95.87
2017-10-19T22:12:03.891Z,95.11
2017-10-19T22:13:14.653Z,95.80
2017-10-19T22:14:21.815Z,95.61
2017-10-19T22:15:30.778Z,95.20
2017-10-19T22:16:40.099Z,95.99
2017-10-19T22:17:53.113Z,95.49
2017-10-19T22:19:01.478Z,96.01
2017-10-19T22:20:09.527Z,95.38
2017-10-19T22:21:19.576Z,95.67
2017-10-19T22:22:25.942Z,94.85
2017-10-19T22:23:32.250Z,94.13
2017-10-19T22:24:39.534Z,94.21
2017-10-19T22:26:57.440Z,94.75
2017-10-19T22:28:04.661Z,95.45
2017-10-19T22:29:12.712Z,95.50
2017-10-19T22:30:22.230Z,94.91
2017-10-19T22:31:29.738Z,95.38
2017-10-19T22:32:36.037Z,95.30
2017-10-19T22:33:43.388Z,94.42
2017-10-19T22:34:51.084Z,94.60
2017-10-19T22:35:58.240Z,94.87
2017-10-19T22:37:05.281Z,96.09
2017-10-19T22:38:15.389Z,95.07
2017-10-19T22:39:21.975Z,94.48
2017-10-19T22:40:29.846Z,94.56
2017-10-19T22:41:36.367Z,93.90
2017-10-19T22:42:42.696Z,94.71
2017-10-19T22:43:49.303Z,95.34
2017-10-19T22:44:55.815Z,95.03
2017-10-19T22:46:02.230Z,94.64
2017-10-19T22:47:08.560Z,95.45
2017-10-19T22:48:14.852Z,94.99
2017-10-19T22:49:21.479Z,94.05
2017-10-19T22:50:27.886Z,94.89
2017-10-19T22:51:34.096Z,94.25
2017-10-19T22:52:40.307Z,94.52
2017-10-19T22:53:47.551Z,95.07
2017-10-19T22:54:54.882Z,95.47
2017-10-19T22:56:02.105Z,95.95
2017-10-19T22:57:11.406Z,95.52
2017-10-19T22:58:18.412Z,95.78
2017-10-19T22:59:24.733Z,95.16
2017-10-19T23:00:31.478Z,96.52
2017-10-19T23:01:37.572Z,96.54
2017-10-19T23:02:46.102Z,96.36
2017-10-19T23:03:53.971Z,95.15
2017-10-19T23:05:01.316Z,94.38
2017-10-19T23:06:08.125Z,95.31
2017-10-19T23:07:14.653Z,94.77
2017-10-19T23:08:21.192Z,94.28
2017-10-19T23:09:28.494Z,94.06
2017-10-19T23:10:36.508Z,93.81
2017-10-19T23:11:44.901Z,93.51
2017-10-19T23:12:53.575Z,95.15
2017-10-19T23:13:59.983Z,96.63
2017-10-19T23:15:06.205Z,95.60
2017-10-19T23:17:54.973Z,94.97
2017-10-19T23:19:01.135Z,95.48
2017-10-19T23:20:07.315Z,95.52
2017-10-19T23:21:13.479Z,95.59
2017-10-19T23:22:19.454Z,95.65
2017-10-19T23:23:25.473Z,94.84
2017-10-19T23:24:31.649Z,95.53
2017-10-19T23:25:38.642Z,96.12
2017-10-19T23:26:44.897Z,96.51
2017-10-19T23:27:51.087Z,96.48
2017-10-19T23:28:57.248Z,96.68
2017-10-19T23:30:04.502Z,97.17
2017-10-19T23:31:11.317Z,97.31
2017-10-19T23:32:17.550Z,97.28
2017-10-19T23:33:23.896Z,97.02
2017-10-19T23:34:30.098Z,97.29
2017-10-19T23:35:36.403Z,97.04
2017-10-19T23:36:42.605Z,96.36
2017-10-19T23:37:48.766Z,96.13
2017-10-19T23:38:55.043Z,95.73
2017-10-19T23:40:01.271Z,96.28
2017-10-19T23:41:07.475Z,96.84
2017-10-19T23:42:13.570Z,96.63
2017-10-19T23:43:19.786Z,96.03
2017-10-19T23:44:26.385Z,96.96
2017-10-19T23:45:32.796Z,96.70
2017-10-19T23:46:39.833Z,96.88
2017-10-19T23:47:47.562Z,96.95
2017-10-19T23:48:54.581Z,97.33
2017-10-19T23:50:01.885Z,97.22
2017-10-19T23:51:08.551Z,97.79
2017-10-19T23:52:14.802Z,97.42
2017-10-19T23:53:21.105Z,97.68
2017-10-19T23:54:27.322Z,97.68
2017-10-19T23:55:33.519Z,97.21
2017-10-19T23:56:40.321Z,96.53
2017-10-19T23:57:46.526Z,95.61
2017-10-19T23:58:53.448Z,96.87
2017-10-19T23:59:59.835Z,97.55
